CA-0487 weather

CLOSED Long Branch Aerodrome
Mississauga, Ontario, Canada

Public forecast

Using degrees Celsius for public forecast. Weather courtesy of forecast.io.

Closest aviation weather report (METAR) to Long Branch Aerodrome

Closest report is Lester B. Pearson International Airport, 7.1 nm (13.1 km) NNW. Retrieved 2020/07/12 23:00 UTC (4 minutes ago):

CYYZ 122300Z 35014KT 15SM SCT050 SCT062 BKN150 BKN250 24/16 A2974 RMK CU3SC1AC1CI2 CB TOPS DIST E SLP070 DENSITY ALT 2000FT

Closest aviation forecast (TAF) to Long Branch Aerodrome

Closest forecast is Lester B. Pearson International Airport, 7.1 nm (13.1 km) NNW. Retrieved 2020/07/12 21:39 UTC (1 hour ago):

TAF CYYZ 122038Z 1221/1324 28012KT P6SM SCT040 BKN220 TEMPO 1221/1302 P6SM -SHRA BKN040 BKN220 BECMG 1222/1224 34012KT FM130200 36008KT P6SM BKN040 FM131100 33010KT P6SM SCT010 BKN030 FM131600 33012KT P6SM -SHRA BKN040 RMK NXT FCST BY 130000Z